sensor_id;sensor_type;location;lat;lon;timestamp;pressure;altitude;pressure_sealevel;temperature
19282;BMP180;9774;52.034;5.342;2022-07-29T00:01:06;101641.00;;;23.20
19282;BMP180;9774;52.034;5.342;2022-07-29T00:03:33;101639.00;;;23.10
19282;BMP180;9774;52.034;5.342;2022-07-29T00:06:00;101636.00;;;23.10
19282;BMP180;9774;52.034;5.342;2022-07-29T00:08:27;101636.00;;;23.10
19282;BMP180;9774;52.034;5.342;2022-07-29T00:10:55;101628.00;;;23.10
19282;BMP180;9774;52.034;5.342;2022-07-29T00:13:22;101628.00;;;23.10
19282;BMP180;9774;52.034;5.342;2022-07-29T00:15:50;101627.00;;;23.00
19282;BMP180;9774;52.034;5.342;2022-07-29T00:18:18;101619.00;;;23.00
19282;BMP180;9774;52.034;5.342;2022-07-29T00:20:45;101612.00;;;23.00
19282;BMP180;9774;52.034;5.342;2022-07-29T00:23:12;101614.00;;;22.90
19282;BMP180;9774;52.034;5.342;2022-07-29T00:25:40;101609.00;;;22.90
19282;BMP180;9774;52.034;5.342;2022-07-29T00:28:07;101604.00;;;22.90
19282;BMP180;9774;52.034;5.342;2022-07-29T00:30:34;101602.00;;;22.80
19282;BMP180;9774;52.034;5.342;2022-07-29T00:33:03;101599.00;;;22.80
19282;BMP180;9774;52.034;5.342;2022-07-29T00:35:30;101599.00;;;22.80
19282;BMP180;9774;52.034;5.342;2022-07-29T00:38:13;101601.00;;;22.70
19282;BMP180;9774;52.034;5.342;2022-07-29T00:40:41;101592.00;;;22.70
19282;BMP180;9774;52.034;5.342;2022-07-29T00:43:09;101588.00;;;22.70
19282;BMP180;9774;52.034;5.342;2022-07-29T00:45:36;101588.00;;;22.70
19282;BMP180;9774;52.034;5.342;2022-07-29T00:48:09;101586.00;;;22.60
19282;BMP180;9774;52.034;5.342;2022-07-29T00:50:36;101581.00;;;22.60
19282;BMP180;9774;52.034;5.342;2022-07-29T00:53:05;101583.00;;;22.60
19282;BMP180;9774;52.034;5.342;2022-07-29T00:55:34;101579.00;;;22.60
19282;BMP180;9774;52.034;5.342;2022-07-29T00:58:02;101580.00;;;22.60
19282;BMP180;9774;52.034;5.342;2022-07-29T01:00:29;101577.00;;;22.50
19282;BMP180;9774;52.034;5.342;2022-07-29T01:02:57;101570.00;;;22.50
19282;BMP180;9774;52.034;5.342;2022-07-29T01:05:27;101570.00;;;22.50
19282;BMP180;9774;52.034;5.342;2022-07-29T01:07:55;101563.00;;;22.50
19282;BMP180;9774;52.034;5.342;2022-07-29T01:10:24;101568.00;;;22.40
19282;BMP180;9774;52.034;5.342;2022-07-29T01:12:53;101568.00;;;22.40
19282;BMP180;9774;52.034;5.342;2022-07-29T01:15:22;101572.00;;;22.40
19282;BMP180;9774;52.034;5.342;2022-07-29T01:17:55;101568.00;;;22.30
19282;BMP180;9774;52.034;5.342;2022-07-29T01:20:30;101565.00;;;22.30
19282;BMP180;9774;52.034;5.342;2022-07-29T01:23:18;101568.00;;;22.20
19282;BMP180;9774;52.034;5.342;2022-07-29T01:26:13;101560.00;;;22.20
19282;BMP180;9774;52.034;5.342;2022-07-29T01:28:57;101565.00;;;22.20
19282;BMP180;9774;52.034;5.342;2022-07-29T01:31:31;101573.00;;;22.20
19282;BMP180;9774;52.034;5.342;2022-07-29T01:34:03;101570.00;;;22.20
19282;BMP180;9774;52.034;5.342;2022-07-29T01:36:35;101577.00;;;22.20
19282;BMP180;9774;52.034;5.342;2022-07-29T01:39:08;101573.00;;;22.20
19282;BMP180;9774;52.034;5.342;2022-07-29T01:41:42;101579.00;;;22.20
19282;BMP180;9774;52.034;5.342;2022-07-29T01:44:18;101579.00;;;22.10
19282;BMP180;9774;52.034;5.342;2022-07-29T01:46:52;101576.00;;;22.10
19282;BMP180;9774;52.034;5.342;2022-07-29T01:49:24;101582.00;;;22.10
19282;BMP180;9774;52.034;5.342;2022-07-29T01:51:57;101577.00;;;22.10
19282;BMP180;9774;52.034;5.342;2022-07-29T01:54:29;101578.00;;;22.20
19282;BMP180;9774;52.034;5.342;2022-07-29T01:56:58;101571.00;;;22.10
19282;BMP180;9774;52.034;5.342;2022-07-29T01:59:28;101577.00;;;22.10
19282;BMP180;9774;52.034;5.342;2022-07-29T02:01:58;101579.00;;;22.10
19282;BMP180;9774;52.034;5.342;2022-07-29T02:04:26;101575.00;;;22.20
19282;BMP180;9774;52.034;5.342;2022-07-29T02:06:58;101573.00;;;22.10
19282;BMP180;9774;52.034;5.342;2022-07-29T02:09:27;101572.00;;;22.20
19282;BMP180;9774;52.034;5.342;2022-07-29T02:11:56;101567.00;;;22.20
19282;BMP180;9774;52.034;5.342;2022-07-29T02:14:26;101565.00;;;22.20
19282;BMP180;9774;52.034;5.342;2022-07-29T02:16:56;101563.00;;;22.20
19282;BMP180;9774;52.034;5.342;2022-07-29T02:19:25;101567.00;;;22.20
19282;BMP180;9774;52.034;5.342;2022-07-29T02:21:55;101569.00;;;22.20
19282;BMP180;9774;52.034;5.342;2022-07-29T02:24:25;101569.00;;;22.20
19282;BMP180;9774;52.034;5.342;2022-07-29T02:26:55;101571.00;;;22.20
19282;BMP180;9774;52.034;5.342;2022-07-29T02:29:25;101567.00;;;22.20
19282;BMP180;9774;52.034;5.342;2022-07-29T02:31:55;101571.00;;;22.20
19282;BMP180;9774;52.034;5.342;2022-07-29T02:34:24;101561.00;;;22.20
19282;BMP180;9774;52.034;5.342;2022-07-29T02:36:52;101565.00;;;22.20
19282;BMP180;9774;52.034;5.342;2022-07-29T02:39:22;101563.00;;;22.20
19282;BMP180;9774;52.034;5.342;2022-07-29T02:41:51;101560.00;;;22.20
19282;BMP180;9774;52.034;5.342;2022-07-29T02:44:20;101553.00;;;22.10
19282;BMP180;9774;52.034;5.342;2022-07-29T02:46:52;101555.00;;;22.10
19282;BMP180;9774;52.034;5.342;2022-07-29T02:49:29;101557.00;;;22.10
19282;BMP180;9774;52.034;5.342;2022-07-29T02:52:01;101551.00;;;22.10
19282;BMP180;9774;52.034;5.342;2022-07-29T02:54:33;101551.00;;;22.10
19282;BMP180;9774;52.034;5.342;2022-07-29T02:57:09;101558.00;;;22.10
19282;BMP180;9774;52.034;5.342;2022-07-29T02:59:38;101556.00;;;22.10
19282;BMP180;9774;52.034;5.342;2022-07-29T03:02:09;101554.00;;;22.10
19282;BMP180;9774;52.034;5.342;2022-07-29T03:04:40;101553.00;;;22.00
19282;BMP180;9774;52.034;5.342;2022-07-29T03:07:10;101550.00;;;22.00
19282;BMP180;9774;52.034;5.342;2022-07-29T03:09:38;101555.00;;;22.00
19282;BMP180;9774;52.034;5.342;2022-07-29T03:12:06;101551.00;;;22.00
19282;BMP180;9774;52.034;5.342;2022-07-29T03:14:34;101545.00;;;22.00
19282;BMP180;9774;52.034;5.342;2022-07-29T03:17:02;101540.00;;;22.00
19282;BMP180;9774;52.034;5.342;2022-07-29T03:19:30;101544.00;;;22.00
19282;BMP180;9774;52.034;5.342;2022-07-29T03:21:59;101544.00;;;22.00
19282;BMP180;9774;52.034;5.342;2022-07-29T03:24:28;101540.00;;;22.00
19282;BMP180;9774;52.034;5.342;2022-07-29T03:26:56;101540.00;;;22.00
19282;BMP180;9774;52.034;5.342;2022-07-29T03:29:24;101540.00;;;22.00
19282;BMP180;9774;52.034;5.342;2022-07-29T03:31:52;101528.00;;;22.00
19282;BMP180;9774;52.034;5.342;2022-07-29T03:34:20;101527.00;;;22.00
19282;BMP180;9774;52.034;5.342;2022-07-29T03:36:48;101521.00;;;22.00
19282;BMP180;9774;52.034;5.342;2022-07-29T03:39:20;101525.00;;;22.00
19282;BMP180;9774;52.034;5.342;2022-07-29T03:41:51;101520.00;;;22.00
19282;BMP180;9774;52.034;5.342;2022-07-29T03:44:21;101527.00;;;22.00
19282;BMP180;9774;52.034;5.342;2022-07-29T03:46:51;101526.00;;;22.00
19282;BMP180;9774;52.034;5.342;2022-07-29T03:49:20;101515.00;;;22.00
19282;BMP180;9774;52.034;5.342;2022-07-29T03:51:48;101529.00;;;22.00
19282;BMP180;9774;52.034;5.342;2022-07-29T03:54:17;101523.00;;;22.00
19282;BMP180;9774;52.034;5.342;2022-07-29T03:56:47;101522.00;;;22.00
19282;BMP180;9774;52.034;5.342;2022-07-29T03:59:16;101519.00;;;22.00
19282;BMP180;9774;52.034;5.342;2022-07-29T04:01:46;101526.00;;;22.00
19282;BMP180;9774;52.034;5.342;2022-07-29T04:04:14;101518.00;;;22.00
19282;BMP180;9774;52.034;5.342;2022-07-29T04:06:43;101515.00;;;22.00
19282;BMP180;9774;52.034;5.342;2022-07-29T04:09:10;101520.00;;;22.00
19282;BMP180;9774;52.034;5.342;2022-07-29T04:11:41;101523.00;;;21.90
19282;BMP180;9774;52.034;5.342;2022-07-29T04:14:08;101521.00;;;22.00
19282;BMP180;9774;52.034;5.342;2022-07-29T04:16:36;101514.00;;;22.00
19282;BMP180;9774;52.034;5.342;2022-07-29T04:19:03;101517.00;;;22.00
19282;BMP180;9774;52.034;5.342;2022-07-29T04:21:30;101514.00;;;22.00
19282;BMP180;9774;52.034;5.342;2022-07-29T04:23:57;101519.00;;;22.00
19282;BMP180;9774;52.034;5.342;2022-07-29T04:26:26;101511.00;;;22.00
19282;BMP180;9774;52.034;5.342;2022-07-29T04:28:54;101511.00;;;21.90
19282;BMP180;9774;52.034;5.342;2022-07-29T04:31:22;101509.00;;;21.90
19282;BMP180;9774;52.034;5.342;2022-07-29T04:33:49;101514.00;;;21.90
19282;BMP180;9774;52.034;5.342;2022-07-29T04:36:16;101512.00;;;21.90
19282;BMP180;9774;52.034;5.342;2022-07-29T04:38:43;101512.00;;;21.90
19282;BMP180;9774;52.034;5.342;2022-07-29T04:41:11;101513.00;;;21.90
19282;BMP180;9774;52.034;5.342;2022-07-29T04:43:38;101512.00;;;21.90
19282;BMP180;9774;52.034;5.342;2022-07-29T04:46:07;101513.00;;;21.90
19282;BMP180;9774;52.034;5.342;2022-07-29T04:48:34;101522.00;;;21.90
19282;BMP180;9774;52.034;5.342;2022-07-29T04:51:01;101519.00;;;21.90
19282;BMP180;9774;52.034;5.342;2022-07-29T04:53:29;101521.00;;;21.90
19282;BMP180;9774;52.034;5.342;2022-07-29T04:55:56;101526.00;;;21.90
19282;BMP180;9774;52.034;5.342;2022-07-29T04:58:23;101522.00;;;21.90
19282;BMP180;9774;52.034;5.342;2022-07-29T05:00:51;101525.00;;;21.90
19282;BMP180;9774;52.034;5.342;2022-07-29T05:03:19;101530.00;;;21.90
19282;BMP180;9774;52.034;5.342;2022-07-29T05:05:46;101522.00;;;22.00
19282;BMP180;9774;52.034;5.342;2022-07-29T05:08:14;101519.00;;;22.00
19282;BMP180;9774;52.034;5.342;2022-07-29T05:10:41;101530.00;;;22.00
19282;BMP180;9774;52.034;5.342;2022-07-29T05:13:08;101525.00;;;22.00
19282;BMP180;9774;52.034;5.342;2022-07-29T05:15:36;101534.00;;;22.00
19282;BMP180;9774;52.034;5.342;2022-07-29T05:18:04;101527.00;;;22.00
19282;BMP180;9774;52.034;5.342;2022-07-29T05:20:33;101535.00;;;22.00
19282;BMP180;9774;52.034;5.342;2022-07-29T05:23:01;101537.00;;;22.00
19282;BMP180;9774;52.034;5.342;2022-07-29T05:25:29;101546.00;;;22.10
19282;BMP180;9774;52.034;5.342;2022-07-29T05:27:57;101553.00;;;22.10
19282;BMP180;9774;52.034;5.342;2022-07-29T05:30:24;101539.00;;;22.10
19282;BMP180;9774;52.034;5.342;2022-07-29T05:32:52;101553.00;;;22.10
19282;BMP180;9774;52.034;5.342;2022-07-29T05:35:19;101551.00;;;22.10
19282;BMP180;9774;52.034;5.342;2022-07-29T05:37:47;101555.00;;;22.10
19282;BMP180;9774;52.034;5.342;2022-07-29T05:40:15;101550.00;;;22.20
19282;BMP180;9774;52.034;5.342;2022-07-29T05:42:42;101553.00;;;22.20
19282;BMP180;9774;52.034;5.342;2022-07-29T05:45:10;101551.00;;;22.20
19282;BMP180;9774;52.034;5.342;2022-07-29T05:47:37;101548.00;;;22.20
19282;BMP180;9774;52.034;5.342;2022-07-29T05:50:05;101548.00;;;22.30
19282;BMP180;9774;52.034;5.342;2022-07-29T05:52:33;101552.00;;;22.30
19282;BMP180;9774;52.034;5.342;2022-07-29T05:55:01;101553.00;;;22.30
19282;BMP180;9774;52.034;5.342;2022-07-29T05:57:31;101553.00;;;22.40
19282;BMP180;9774;52.034;5.342;2022-07-29T05:59:59;101554.00;;;22.40
19282;BMP180;9774;52.034;5.342;2022-07-29T06:02:27;101548.00;;;22.40
19282;BMP180;9774;52.034;5.342;2022-07-29T06:04:54;101547.00;;;22.40
19282;BMP180;9774;52.034;5.342;2022-07-29T06:07:22;101561.00;;;22.40
19282;BMP180;9774;52.034;5.342;2022-07-29T06:09:49;101566.00;;;22.50
19282;BMP180;9774;52.034;5.342;2022-07-29T06:12:18;101573.00;;;22.50
19282;BMP180;9774;52.034;5.342;2022-07-29T06:14:45;101568.00;;;22.50
19282;BMP180;9774;52.034;5.342;2022-07-29T06:17:13;101580.00;;;22.50
19282;BMP180;9774;52.034;5.342;2022-07-29T06:19:40;101581.00;;;22.50
19282;BMP180;9774;52.034;5.342;2022-07-29T06:22:08;101590.00;;;22.60
19282;BMP180;9774;52.034;5.342;2022-07-29T06:24:36;101587.00;;;22.60
19282;BMP180;9774;52.034;5.342;2022-07-29T06:27:07;101589.00;;;22.60
19282;BMP180;9774;52.034;5.342;2022-07-29T06:29:37;101587.00;;;22.70
19282;BMP180;9774;52.034;5.342;2022-07-29T06:32:04;101580.00;;;22.80
19282;BMP180;9774;52.034;5.342;2022-07-29T06:34:32;101580.00;;;22.80
19282;BMP180;9774;52.034;5.342;2022-07-29T06:36:59;101581.00;;;22.90
19282;BMP180;9774;52.034;5.342;2022-07-29T06:39:28;101591.00;;;22.90
19282;BMP180;9774;52.034;5.342;2022-07-29T06:41:56;101599.00;;;22.90
19282;BMP180;9774;52.034;5.342;2022-07-29T06:44:23;101601.00;;;23.00
19282;BMP180;9774;52.034;5.342;2022-07-29T06:46:52;101594.00;;;23.00
19282;BMP180;9774;52.034;5.342;2022-07-29T06:49:20;101600.00;;;23.00
19282;BMP180;9774;52.034;5.342;2022-07-29T06:51:47;101601.00;;;23.00
19282;BMP180;9774;52.034;5.342;2022-07-29T06:54:15;101600.00;;;23.00
19282;BMP180;9774;52.034;5.342;2022-07-29T06:56:42;101606.00;;;23.00
19282;BMP180;9774;52.034;5.342;2022-07-29T06:59:11;101598.00;;;23.10
19282;BMP180;9774;52.034;5.342;2022-07-29T07:01:40;101593.00;;;23.20
19282;BMP180;9774;52.034;5.342;2022-07-29T07:04:09;101600.00;;;23.30
19282;BMP180;9774;52.034;5.342;2022-07-29T07:06:40;101600.00;;;23.40
19282;BMP180;9774;52.034;5.342;2022-07-29T07:09:07;101598.00;;;23.50
19282;BMP180;9774;52.034;5.342;2022-07-29T07:11:35;101606.00;;;23.60
19282;BMP180;9774;52.034;5.342;2022-07-29T07:14:03;101607.00;;;23.70
19282;BMP180;9774;52.034;5.342;2022-07-29T07:16:30;101612.00;;;23.80
19282;BMP180;9774;52.034;5.342;2022-07-29T07:18:58;101614.00;;;24.00
19282;BMP180;9774;52.034;5.342;2022-07-29T07:21:27;101609.00;;;24.10
19282;BMP180;9774;52.034;5.342;2022-07-29T07:23:54;101604.00;;;24.20
19282;BMP180;9774;52.034;5.342;2022-07-29T07:26:21;101601.00;;;24.30
19282;BMP180;9774;52.034;5.342;2022-07-29T07:28:49;101592.00;;;24.40
19282;BMP180;9774;52.034;5.342;2022-07-29T07:31:16;101589.00;;;24.50
19282;BMP180;9774;52.034;5.342;2022-07-29T07:33:43;101593.00;;;24.60
19282;BMP180;9774;52.034;5.342;2022-07-29T07:36:10;101585.00;;;24.70
19282;BMP180;9774;52.034;5.342;2022-07-29T07:38:39;101588.00;;;24.80
19282;BMP180;9774;52.034;5.342;2022-07-29T07:41:06;101586.00;;;24.80
19282;BMP180;9774;52.034;5.342;2022-07-29T07:43:33;101590.00;;;24.90
19282;BMP180;9774;52.034;5.342;2022-07-29T07:46:01;101585.00;;;24.90
19282;BMP180;9774;52.034;5.342;2022-07-29T07:48:28;101591.00;;;25.00
19282;BMP180;9774;52.034;5.342;2022-07-29T07:50:55;101590.00;;;25.00
19282;BMP180;9774;52.034;5.342;2022-07-29T07:53:23;101595.00;;;25.10
19282;BMP180;9774;52.034;5.342;2022-07-29T07:55:51;101604.00;;;25.10
19282;BMP180;9774;52.034;5.342;2022-07-29T07:58:19;101590.00;;;25.20
19282;BMP180;9774;52.034;5.342;2022-07-29T08:00:46;101590.00;;;25.20
19282;BMP180;9774;52.034;5.342;2022-07-29T08:03:13;101587.00;;;25.30
19282;BMP180;9774;52.034;5.342;2022-07-29T08:05:41;101581.00;;;25.30
19282;BMP180;9774;52.034;5.342;2022-07-29T08:08:08;101581.00;;;25.40
19282;BMP180;9774;52.034;5.342;2022-07-29T08:10:36;101581.00;;;25.40
19282;BMP180;9774;52.034;5.342;2022-07-29T08:13:26;101571.00;;;25.40
19282;BMP180;9774;52.034;5.342;2022-07-29T08:15:56;101575.00;;;25.50
19282;BMP180;9774;52.034;5.342;2022-07-29T08:18:28;101577.00;;;25.60
19282;BMP180;9774;52.034;5.342;2022-07-29T08:20:56;101578.00;;;25.70
19282;BMP180;9774;52.034;5.342;2022-07-29T08:23:23;101577.00;;;25.80
19282;BMP180;9774;52.034;5.342;2022-07-29T08:25:52;101585.00;;;25.80
19282;BMP180;9774;52.034;5.342;2022-07-29T08:28:20;101587.00;;;25.90
19282;BMP180;9774;52.034;5.342;2022-07-29T08:30:48;101589.00;;;25.90
19282;BMP180;9774;52.034;5.342;2022-07-29T08:33:16;101590.00;;;26.00
19282;BMP180;9774;52.034;5.342;2022-07-29T08:35:44;101589.00;;;26.00
19282;BMP180;9774;52.034;5.342;2022-07-29T08:38:11;101593.00;;;26.00
19282;BMP180;9774;52.034;5.342;2022-07-29T08:40:39;101591.00;;;26.10
19282;BMP180;9774;52.034;5.342;2022-07-29T08:43:06;101599.00;;;26.10
19282;BMP180;9774;52.034;5.342;2022-07-29T08:45:43;101603.00;;;26.10
19282;BMP180;9774;52.034;5.342;2022-07-29T08:48:14;101598.00;;;26.20
19282;BMP180;9774;52.034;5.342;2022-07-29T08:50:42;101603.00;;;26.30
19282;BMP180;9774;52.034;5.342;2022-07-29T08:53:12;101606.00;;;26.30
19282;BMP180;9774;52.034;5.342;2022-07-29T08:55:41;101605.00;;;26.40
19282;BMP180;9774;52.034;5.342;2022-07-29T08:58:10;101601.00;;;26.50
19282;BMP180;9774;52.034;5.342;2022-07-29T09:00:42;101602.00;;;26.60
19282;BMP180;9774;52.034;5.342;2022-07-29T09:03:15;101597.00;;;26.70
19282;BMP180;9774;52.034;5.342;2022-07-29T09:05:42;101590.00;;;26.90
19282;BMP180;9774;52.034;5.342;2022-07-29T09:08:10;101595.00;;;27.10
19282;BMP180;9774;52.034;5.342;2022-07-29T09:10:38;101596.00;;;27.30
19282;BMP180;9774;52.034;5.342;2022-07-29T09:13:05;101606.00;;;27.50
19282;BMP180;9774;52.034;5.342;2022-07-29T09:15:33;101598.00;;;27.70
19282;BMP180;9774;52.034;5.342;2022-07-29T09:18:00;101596.00;;;27.80
19282;BMP180;9774;52.034;5.342;2022-07-29T09:20:32;101597.00;;;27.90
19282;BMP180;9774;52.034;5.342;2022-07-29T09:23:13;101595.00;;;28.10
19282;BMP180;9774;52.034;5.342;2022-07-29T09:25:41;101590.00;;;28.20
19282;BMP180;9774;52.034;5.342;2022-07-29T09:28:12;101587.00;;;28.30
19282;BMP180;9774;52.034;5.342;2022-07-29T09:30:50;101589.00;;;28.30
19282;BMP180;9774;52.034;5.342;2022-07-29T09:33:18;101582.00;;;28.50
19282;BMP180;9774;52.034;5.342;2022-07-29T09:35:57;101585.00;;;28.70
19282;BMP180;9774;52.034;5.342;2022-07-29T09:38:25;101577.00;;;28.90
19282;BMP180;9774;52.034;5.342;2022-07-29T09:40:57;101582.00;;;29.00
19282;BMP180;9774;52.034;5.342;2022-07-29T09:43:24;101589.00;;;29.20
19282;BMP180;9774;52.034;5.342;2022-07-29T09:45:52;101586.00;;;29.30
19282;BMP180;9774;52.034;5.342;2022-07-29T09:48:22;101588.00;;;29.50
19282;BMP180;9774;52.034;5.342;2022-07-29T09:50:51;101586.00;;;29.60
19282;BMP180;9774;52.034;5.342;2022-07-29T09:53:33;101580.00;;;29.60
19282;BMP180;9774;52.034;5.342;2022-07-29T09:56:00;101577.00;;;29.90
19282;BMP180;9774;52.034;5.342;2022-07-29T09:58:28;101585.00;;;30.00
19282;BMP180;9774;52.034;5.342;2022-07-29T10:00:56;101583.00;;;30.10
19282;BMP180;9774;52.034;5.342;2022-07-29T10:03:23;101593.00;;;30.30
19282;BMP180;9774;52.034;5.342;2022-07-29T10:06:06;101584.00;;;30.30
19282;BMP180;9774;52.034;5.342;2022-07-29T10:08:34;101588.00;;;30.50
19282;BMP180;9774;52.034;5.342;2022-07-29T10:11:12;101591.00;;;30.60
19282;BMP180;9774;52.034;5.342;2022-07-29T10:13:40;101587.00;;;30.80
19282;BMP180;9774;52.034;5.342;2022-07-29T10:16:07;101582.00;;;30.90
19282;BMP180;9774;52.034;5.342;2022-07-29T10:18:35;101585.00;;;31.00
19282;BMP180;9774;52.034;5.342;2022-07-29T10:21:06;101590.00;;;31.10
19282;BMP180;9774;52.034;5.342;2022-07-29T10:23:34;101592.00;;;31.20
19282;BMP180;9774;52.034;5.342;2022-07-29T10:26:02;101590.00;;;31.30
19282;BMP180;9774;52.034;5.342;2022-07-29T10:28:30;101582.00;;;31.40
19282;BMP180;9774;52.034;5.342;2022-07-29T10:31:02;101584.00;;;31.40
19282;BMP180;9774;52.034;5.342;2022-07-29T10:33:45;101588.00;;;31.50
19282;BMP180;9774;52.034;5.342;2022-07-29T10:36:24;101587.00;;;31.60
19282;BMP180;9774;52.034;5.342;2022-07-29T10:39:02;101583.00;;;31.70
19282;BMP180;9774;52.034;5.342;2022-07-29T10:41:52;101593.00;;;31.70
19282;BMP180;9774;52.034;5.342;2022-07-29T10:44:24;101579.00;;;31.80
19282;BMP180;9774;52.034;5.342;2022-07-29T10:46:53;101580.00;;;31.90
19282;BMP180;9774;52.034;5.342;2022-07-29T10:49:22;101578.00;;;32.00
19282;BMP180;9774;52.034;5.342;2022-07-29T10:52:06;101587.00;;;31.90
19282;BMP180;9774;52.034;5.342;2022-07-29T10:54:44;101582.00;;;31.90
19282;BMP180;9774;52.034;5.342;2022-07-29T10:57:15;101582.00;;;32.00
19282;BMP180;9774;52.034;5.342;2022-07-29T10:59:43;101583.00;;;31.90
19282;BMP180;9774;52.034;5.342;2022-07-29T11:02:45;101590.00;;;31.70
19282;BMP180;9774;52.034;5.342;2022-07-29T11:05:18;101595.00;;;31.80
19282;BMP180;9774;52.034;5.342;2022-07-29T11:10:50;101595.00;;;31.70
19282;BMP180;9774;52.034;5.342;2022-07-29T11:13:46;101587.00;;;31.50
19282;BMP180;9774;52.034;5.342;2022-07-29T11:16:14;101594.00;;;31.60
19282;BMP180;9774;52.034;5.342;2022-07-29T11:19:20;101585.00;;;31.50
19282;BMP180;9774;52.034;5.342;2022-07-29T11:21:48;101583.00;;;31.60
19282;BMP180;9774;52.034;5.342;2022-07-29T11:24:19;101587.00;;;31.70
19282;BMP180;9774;52.034;5.342;2022-07-29T11:27:16;101585.00;;;31.60
19282;BMP180;9774;52.034;5.342;2022-07-29T11:29:52;101586.00;;;31.60
19282;BMP180;9774;52.034;5.342;2022-07-29T11:32:20;101592.00;;;31.70
19282;BMP180;9774;52.034;5.342;2022-07-29T11:34:49;101588.00;;;31.60
19282;BMP180;9774;52.034;5.342;2022-07-29T11:37:23;101583.00;;;31.60
19282;BMP180;9774;52.034;5.342;2022-07-29T11:40:10;101580.00;;;31.50
19282;BMP180;9774;52.034;5.342;2022-07-29T11:42:44;101588.00;;;31.60
19282;BMP180;9774;52.034;5.342;2022-07-29T11:45:23;101584.00;;;31.60
19282;BMP180;9774;52.034;5.342;2022-07-29T11:47:56;101590.00;;;31.60
19282;BMP180;9774;52.034;5.342;2022-07-29T11:50:34;101582.00;;;31.60
19282;BMP180;9774;52.034;5.342;2022-07-29T11:53:09;101584.00;;;31.60
19282;BMP180;9774;52.034;5.342;2022-07-29T11:55:38;101579.00;;;31.60
19282;BMP180;9774;52.034;5.342;2022-07-29T11:58:08;101586.00;;;31.50
19282;BMP180;9774;52.034;5.342;2022-07-29T12:00:37;101584.00;;;31.60
19282;BMP180;9774;52.034;5.342;2022-07-29T12:03:07;101590.00;;;31.50
19282;BMP180;9774;52.034;5.342;2022-07-29T12:05:38;101586.00;;;31.50
19282;BMP180;9774;52.034;5.342;2022-07-29T12:08:11;101590.00;;;31.50
19282;BMP180;9774;52.034;5.342;2022-07-29T12:10:39;101588.00;;;31.50
19282;BMP180;9774;52.034;5.342;2022-07-29T12:13:08;101582.00;;;31.50
19282;BMP180;9774;52.034;5.342;2022-07-29T12:15:36;101587.00;;;31.60
19282;BMP180;9774;52.034;5.342;2022-07-29T12:18:16;101582.00;;;31.50
19282;BMP180;9774;52.034;5.342;2022-07-29T12:20:44;101592.00;;;31.60
19282;BMP180;9774;52.034;5.342;2022-07-29T12:23:13;101593.00;;;31.60
19282;BMP180;9774;52.034;5.342;2022-07-29T12:25:43;101589.00;;;31.60
19282;BMP180;9774;52.034;5.342;2022-07-29T12:28:13;101594.00;;;31.60
19282;BMP180;9774;52.034;5.342;2022-07-29T12:30:43;101592.00;;;31.70
19282;BMP180;9774;52.034;5.342;2022-07-29T12:33:13;101594.00;;;31.70
19282;BMP180;9774;52.034;5.342;2022-07-29T12:35:42;101597.00;;;31.70
19282;BMP180;9774;52.034;5.342;2022-07-29T12:38:11;101598.00;;;31.80
19282;BMP180;9774;52.034;5.342;2022-07-29T12:40:39;101595.00;;;31.80
19282;BMP180;9774;52.034;5.342;2022-07-29T12:43:08;101589.00;;;31.80
19282;BMP180;9774;52.034;5.342;2022-07-29T12:45:38;101592.00;;;31.80
19282;BMP180;9774;52.034;5.342;2022-07-29T12:48:06;101594.00;;;31.80
19282;BMP180;9774;52.034;5.342;2022-07-29T12:50:35;101587.00;;;31.80
19282;BMP180;9774;52.034;5.342;2022-07-29T12:53:11;101588.00;;;31.80
19282;BMP180;9774;52.034;5.342;2022-07-29T12:55:40;101583.00;;;31.90
19282;BMP180;9774;52.034;5.342;2022-07-29T12:58:08;101582.00;;;31.90
19282;BMP180;9774;52.034;5.342;2022-07-29T13:00:36;101583.00;;;31.90
19282;BMP180;9774;52.034;5.342;2022-07-29T13:03:03;101582.00;;;31.90
19282;BMP180;9774;52.034;5.342;2022-07-29T13:05:42;101576.00;;;31.80
19282;BMP180;9774;52.034;5.342;2022-07-29T13:08:17;101573.00;;;31.90
19282;BMP180;9774;52.034;5.342;2022-07-29T13:10:46;101572.00;;;31.90
19282;BMP180;9774;52.034;5.342;2022-07-29T13:13:14;101579.00;;;31.90
19282;BMP180;9774;52.034;5.342;2022-07-29T13:15:44;101579.00;;;31.90
19282;BMP180;9774;52.034;5.342;2022-07-29T13:18:36;101578.00;;;31.80
19282;BMP180;9774;52.034;5.342;2022-07-29T13:21:11;101575.00;;;31.80
19282;BMP180;9774;52.034;5.342;2022-07-29T13:23:38;101575.00;;;31.90
19282;BMP180;9774;52.034;5.342;2022-07-29T13:26:06;101575.00;;;31.90
19282;BMP180;9774;52.034;5.342;2022-07-29T13:28:34;101573.00;;;31.90
19282;BMP180;9774;52.034;5.342;2022-07-29T13:31:03;101583.00;;;31.80
19282;BMP180;9774;52.034;5.342;2022-07-29T13:33:31;101580.00;;;31.80
19282;BMP180;9774;52.034;5.342;2022-07-29T13:35:58;101573.00;;;31.80
19282;BMP180;9774;52.034;5.342;2022-07-29T13:38:26;101574.00;;;31.70
19282;BMP180;9774;52.034;5.342;2022-07-29T13:40:53;101579.00;;;31.70
19282;BMP180;9774;52.034;5.342;2022-07-29T13:43:21;101578.00;;;31.60
19282;BMP180;9774;52.034;5.342;2022-07-29T13:45:48;101578.00;;;31.60
19282;BMP180;9774;52.034;5.342;2022-07-29T13:48:17;101570.00;;;31.50
19282;BMP180;9774;52.034;5.342;2022-07-29T13:50:44;101578.00;;;31.50
19282;BMP180;9774;52.034;5.342;2022-07-29T13:53:12;101573.00;;;31.50
19282;BMP180;9774;52.034;5.342;2022-07-29T13:55:39;101571.00;;;31.40
19282;BMP180;9774;52.034;5.342;2022-07-29T13:58:07;101574.00;;;31.40
19282;BMP180;9774;52.034;5.342;2022-07-29T14:00:34;101569.00;;;31.30
19282;BMP180;9774;52.034;5.342;2022-07-29T14:03:02;101568.00;;;31.30
19282;BMP180;9774;52.034;5.342;2022-07-29T14:05:31;101570.00;;;31.30
19282;BMP180;9774;52.034;5.342;2022-07-29T14:07:58;101569.00;;;31.20
19282;BMP180;9774;52.034;5.342;2022-07-29T14:10:26;101573.00;;;31.20
19282;BMP180;9774;52.034;5.342;2022-07-29T14:12:54;101573.00;;;31.20
19282;BMP180;9774;52.034;5.342;2022-07-29T14:15:21;101570.00;;;31.20
19282;BMP180;9774;52.034;5.342;2022-07-29T14:17:49;101569.00;;;31.20
19282;BMP180;9774;52.034;5.342;2022-07-29T14:20:16;101579.00;;;31.10
19282;BMP180;9774;52.034;5.342;2022-07-29T14:22:45;101572.00;;;31.10
19282;BMP180;9774;52.034;5.342;2022-07-29T14:25:13;101574.00;;;31.10
19282;BMP180;9774;52.034;5.342;2022-07-29T14:27:40;101567.00;;;31.10